createdAt,value
2019-03-25T00:02:28.529Z,93.90
2019-03-25T00:04:57.348Z,93.60
2019-03-25T00:07:26.524Z,93.90
2019-03-25T00:09:55.354Z,94.20
2019-03-25T00:12:24.189Z,94.30
2019-03-25T00:14:53.865Z,94.40
2019-03-25T00:17:22.733Z,94.70
2019-03-25T00:19:51.792Z,94.50
2019-03-25T00:22:20.597Z,94.20
2019-03-25T00:24:49.428Z,93.30
2019-03-25T00:27:18.176Z,92.40
2019-03-25T00:29:47.344Z,92.80
2019-03-25T00:32:16.294Z,92.90
2019-03-25T00:34:45.128Z,93.40
2019-03-25T00:37:13.856Z,93.70
2019-03-25T00:39:42.621Z,94.20
2019-03-25T00:42:11.393Z,94.50
2019-03-25T00:44:40.190Z,94.60
2019-03-25T00:47:09.018Z,94.80
2019-03-25T00:49:37.827Z,94.80
2019-03-25T00:52:07.617Z,94.30
2019-03-25T00:54:36.369Z,94.20
2019-03-25T00:57:05.184Z,94.30
2019-03-25T00:59:34.096Z,94.30
2019-03-25T01:02:02.954Z,94.70
2019-03-25T01:04:31.774Z,94.50
2019-03-25T01:07:00.567Z,94.30
2019-03-25T01:09:29.326Z,94.80
2019-03-25T01:11:58.126Z,94.90
2019-03-25T01:14:26.933Z,94.70
2019-03-25T01:16:56.533Z,94.90
2019-03-25T01:19:25.381Z,94.90
2019-03-25T01:21:54.204Z,95.00
2019-03-25T01:24:22.974Z,94.80
2019-03-25T01:26:51.758Z,95.00
2019-03-25T01:29:22.181Z,95.10
2019-03-25T01:31:51.244Z,95.10
2019-03-25T01:34:20.766Z,95.10
2019-03-25T01:36:50.481Z,94.50
2019-03-25T01:39:19.849Z,94.40
2019-03-25T01:41:49.133Z,94.60
2019-03-25T01:44:18.266Z,94.80
2019-03-25T01:46:47.845Z,94.90
2019-03-25T01:49:17.441Z,95.20
2019-03-25T01:51:46.984Z,95.50
2019-03-25T01:54:15.809Z,95.20
2019-03-25T01:56:44.705Z,95.30
2019-03-25T01:59:14.290Z,95.20
2019-03-25T02:01:43.143Z,95.00
2019-03-25T02:04:12.301Z,94.80
2019-03-25T02:06:41.035Z,94.80
2019-03-25T02:09:10.185Z,95.00
2019-03-25T02:11:39.043Z,95.40
2019-03-25T02:14:07.844Z,95.40
2019-03-25T02:16:36.572Z,95.60
2019-03-25T02:19:05.415Z,96.00
2019-03-25T02:21:34.211Z,95.70
2019-03-25T02:24:03.088Z,95.40
2019-03-25T02:26:31.864Z,95.20
2019-03-25T02:29:00.814Z,95.20
2019-03-25T02:31:29.658Z,95.00
2019-03-25T02:33:58.450Z,95.10
2019-03-25T02:36:27.244Z,95.10
2019-03-25T02:38:56.086Z,95.20
2019-03-25T02:41:24.882Z,95.20
2019-03-25T02:43:53.674Z,95.10
2019-03-25T02:46:22.529Z,95.00
2019-03-25T02:48:51.340Z,94.90
2019-03-25T02:51:20.109Z,94.60
2019-03-25T02:53:49.165Z,94.40
2019-03-25T02:56:18.009Z,94.80
2019-03-25T02:58:46.932Z,95.30
2019-03-25T03:01:15.750Z,95.60
2019-03-25T03:03:44.461Z,95.60
2019-03-25T03:06:13.318Z,95.60
2019-03-25T03:08:42.333Z,95.40
2019-03-25T03:11:11.201Z,95.20
2019-03-25T03:13:40.285Z,95.00
2019-03-25T03:16:09.117Z,95.00
2019-03-25T03:18:37.913Z,94.70
2019-03-25T03:21:06.767Z,94.80
2019-03-25T03:23:35.604Z,94.70
2019-03-25T03:26:04.437Z,94.40
2019-03-25T03:28:33.276Z,94.30
2019-03-25T03:31:02.317Z,94.30
2019-03-25T03:33:31.357Z,94.30
2019-03-25T03:36:00.419Z,94.20
2019-03-25T03:38:29.225Z,94.20
2019-03-25T03:40:58.470Z,94.20
2019-03-25T03:43:27.243Z,94.20
2019-03-25T03:45:56.454Z,94.10
2019-03-25T03:48:25.226Z,93.80
2019-03-25T03:50:54.544Z,93.60
2019-03-25T03:53:23.356Z,93.60
2019-03-25T03:55:52.998Z,93.70
2019-03-25T03:58:23.307Z,93.70
2019-03-25T04:00:52.060Z,94.00
2019-03-25T04:03:20.909Z,94.10
2019-03-25T04:05:49.712Z,93.90
2019-03-25T04:08:18.502Z,94.00
2019-03-25T04:10:47.362Z,93.90
2019-03-25T04:13:16.183Z,93.80
2019-03-25T04:15:44.985Z,93.90
2019-03-25T04:18:13.758Z,93.70
2019-03-25T04:20:42.561Z,93.10
2019-03-25T04:23:11.386Z,93.10
2019-03-25T04:25:40.177Z,92.80
2019-03-25T04:28:08.958Z,92.40
2019-03-25T04:30:37.781Z,92.50
2019-03-25T04:33:07.457Z,91.50
2019-03-25T04:35:36.204Z,90.80
2019-03-25T04:38:05.044Z,90.80
2019-03-25T04:40:33.783Z,91.10
2019-03-25T04:43:02.645Z,91.30
2019-03-25T04:45:31.436Z,91.40
2019-03-25T04:48:00.266Z,91.10
2019-03-25T04:50:29.094Z,91.10
2019-03-25T04:52:57.856Z,91.90
2019-03-25T04:55:27.566Z,91.70
2019-03-25T04:57:56.292Z,92.10
2019-03-25T05:00:33.575Z,92.20
2019-03-25T05:03:02.381Z,92.20
2019-03-25T05:05:31.207Z,91.20
2019-03-25T05:08:00.011Z,91.50
2019-03-25T05:10:28.772Z,91.00
2019-03-25T05:12:57.607Z,91.10
2019-03-25T05:15:27.276Z,91.60
2019-03-25T05:17:56.405Z,91.50
2019-03-25T05:20:25.319Z,91.90
2019-03-25T05:22:54.147Z,91.70
2019-03-25T05:25:22.899Z,91.90
2019-03-25T05:27:51.711Z,91.90
2019-03-25T05:30:22.932Z,91.80
2019-03-25T05:32:50.855Z,91.60
2019-03-25T05:35:19.964Z,91.70
2019-03-25T05:37:48.739Z,92.10
2019-03-25T05:40:17.512Z,92.10
2019-03-25T05:42:46.232Z,91.90
2019-03-25T05:45:15.040Z,92.00
2019-03-25T05:47:43.877Z,92.30
2019-03-25T05:50:12.707Z,92.50
2019-03-25T05:52:41.540Z,92.20
2019-03-25T05:55:10.359Z,92.30
2019-03-25T05:57:39.122Z,92.50
2019-03-25T06:00:08.324Z,92.10
2019-03-25T06:02:37.151Z,92.30
2019-03-25T06:05:06.883Z,92.30
2019-03-25T06:07:35.753Z,92.40
2019-03-25T06:10:05.879Z,92.20
2019-03-25T06:12:34.678Z,92.00
2019-03-25T06:15:04.883Z,91.90
2019-03-25T06:17:33.765Z,92.10
2019-03-25T06:20:02.553Z,91.90
2019-03-25T06:22:31.306Z,92.00
2019-03-25T06:25:00.035Z,91.70
2019-03-25T06:27:28.865Z,91.80
2019-03-25T06:29:57.674Z,91.80
2019-03-25T06:32:26.507Z,91.70
2019-03-25T06:34:55.339Z,92.40
2019-03-25T06:37:24.151Z,93.20
2019-03-25T06:39:52.959Z,94.40
2019-03-25T06:42:22.705Z,94.90
2019-03-25T06:44:52.305Z,94.90
2019-03-25T06:47:21.438Z,94.90
2019-03-25T06:49:50.232Z,94.40
2019-03-25T06:52:19.074Z,95.00
2019-03-25T06:54:47.866Z,95.30
2019-03-25T06:57:25.191Z,95.90
2019-03-25T06:59:47.443Z,96.10
2019-03-25T07:02:16.248Z,96.00
2019-03-25T07:04:45.089Z,96.30
2019-03-25T07:07:13.892Z,96.10
2019-03-25T07:09:45.089Z,95.80
2019-03-25T07:12:13.814Z,96.10
2019-03-25T07:14:42.878Z,95.90
2019-03-25T07:17:12.955Z,95.30
2019-03-25T07:19:41.720Z,95.10
2019-03-25T07:22:10.510Z,94.50
2019-03-25T07:24:39.337Z,94.10
2019-03-25T07:27:08.120Z,94.40
2019-03-25T07:29:36.961Z,94.40
2019-03-25T07:32:05.754Z,93.50
2019-03-25T07:34:34.515Z,92.60
2019-03-25T07:37:03.330Z,92.80
2019-03-25T07:39:32.195Z,93.00
2019-03-25T07:42:01.031Z,93.50
2019-03-25T07:44:29.833Z,94.10
2019-03-25T07:46:58.670Z,94.30
2019-03-25T07:49:27.471Z,93.70
2019-03-25T07:51:56.573Z,93.90
2019-03-25T07:54:25.443Z,93.50
2019-03-25T07:56:54.395Z,93.60
2019-03-25T07:59:23.230Z,93.60
2019-03-25T08:01:51.942Z,93.60
2019-03-25T08:04:20.737Z,92.60
2019-03-25T08:06:49.566Z,92.50
2019-03-25T08:09:18.474Z,91.80
2019-03-25T08:11:47.263Z,91.80
2019-03-25T08:14:16.037Z,91.90
2019-03-25T08:16:44.859Z,92.00
2019-03-25T08:19:13.691Z,92.90
2019-03-25T08:21:48.641Z,93.90
2019-03-25T08:24:17.494Z,94.70
2019-03-25T08:26:46.302Z,95.90
2019-03-25T08:29:15.126Z,95.80
2019-03-25T08:31:44.088Z,96.90
2019-03-25T08:34:12.979Z,97.30
2019-03-25T08:36:41.717Z,96.70
2019-03-25T08:39:10.534Z,97.10
2019-03-25T08:41:39.253Z,97.20
2019-03-25T08:44:08.026Z,97.70
2019-03-25T08:46:36.804Z,98.20
2019-03-25T08:49:05.679Z,98.30
2019-03-25T08:51:34.482Z,98.90
2019-03-25T08:54:03.594Z,98.70
2019-03-25T08:56:32.426Z,98.40
2019-03-25T08:59:01.235Z,98.60
2019-03-25T09:01:30.148Z,97.20
2019-03-25T09:03:58.956Z,96.30
2019-03-25T09:06:27.861Z,95.70
2019-03-25T09:08:56.578Z,95.60
2019-03-25T09:11:25.384Z,95.90
2019-03-25T09:13:54.236Z,95.80
2019-03-25T09:16:23.020Z,96.40
2019-03-25T09:18:51.872Z,96.10
2019-03-25T09:21:20.675Z,97.60
2019-03-25T09:23:49.517Z,97.80
2019-03-25T09:26:18.371Z,98.10
2019-03-25T09:28:47.090Z,98.40
2019-03-25T09:31:17.105Z,96.70
2019-03-25T09:33:46.228Z,97.50
2019-03-25T09:36:16.145Z,96.90
2019-03-25T09:38:45.058Z,96.90
2019-03-25T09:41:13.977Z,95.60
2019-03-25T09:43:42.868Z,94.30
2019-03-25T09:46:11.635Z,95.00
2019-03-25T09:48:40.477Z,95.60
2019-03-25T09:51:09.279Z,94.10
2019-03-25T09:53:38.109Z,95.20
2019-03-25T09:56:06.935Z,93.70
2019-03-25T09:58:36.743Z,93.40
2019-03-25T10:01:05.975Z,92.80
2019-03-25T10:03:34.821Z,91.80
2019-03-25T10:06:03.868Z,91.60
2019-03-25T10:08:32.688Z,92.00
2019-03-25T10:11:01.480Z,92.60
2019-03-25T10:13:31.192Z,91.30
2019-03-25T10:16:00.038Z,92.00
2019-03-25T10:18:28.839Z,91.00
2019-03-25T10:20:57.829Z,92.00
2019-03-25T10:23:27.002Z,90.50
2019-03-25T10:25:55.841Z,91.20
2019-03-25T10:28:24.654Z,90.70
2019-03-25T10:30:53.874Z,89.30
2019-03-25T10:33:22.669Z,90.80
2019-03-25T10:35:51.908Z,90.90
2019-03-25T10:38:20.733Z,90.60
2019-03-25T10:40:49.541Z,91.10
2019-03-25T10:43:18.469Z,89.50
2019-03-25T10:45:47.255Z,88.00
2019-03-25T10:48:16.123Z,89.30
2019-03-25T10:50:44.922Z,86.10
2019-03-25T10:53:13.657Z,86.90
2019-03-25T10:55:42.693Z,87.30
2019-03-25T10:58:11.491Z,85.60
2019-03-25T11:00:40.319Z,85.00
2019-03-25T11:03:09.118Z,85.70
2019-03-25T11:05:37.950Z,83.80
2019-03-25T11:08:07.098Z,83.50
2019-03-25T11:10:36.218Z,83.60
2019-03-25T11:13:05.033Z,83.50
2019-03-25T11:15:33.842Z,83.40
2019-03-25T11:18:02.678Z,81.80
2019-03-25T11:20:31.511Z,82.10
2019-03-25T11:23:00.354Z,84.50
2019-03-25T11:25:29.175Z,81.60
2019-03-25T11:27:58.914Z,78.50
2019-03-25T11:30:49.882Z,80.40
2019-03-25T11:33:18.672Z,82.00
2019-03-25T11:35:47.433Z,80.50
2019-03-25T11:38:16.280Z,80.90
2019-03-25T11:40:45.399Z,77.70
2019-03-25T11:43:14.231Z,78.50
2019-03-25T11:45:43.033Z,75.70
2019-03-25T11:48:11.883Z,78.90
2019-03-25T11:50:40.681Z,75.30
2019-03-25T11:53:09.839Z,73.30
2019-03-25T11:55:38.643Z,74.60
2019-03-25T11:58:07.465Z,77.10
2019-03-25T12:00:37.292Z,72.30
2019-03-25T12:03:05.943Z,74.20
2019-03-25T12:05:34.779Z,77.80
2019-03-25T12:08:03.591Z,72.20
2019-03-25T12:10:32.782Z,71.00
2019-03-25T12:13:01.644Z,71.40
2019-03-25T12:15:30.449Z,70.50
2019-03-25T12:17:59.289Z,68.70
2019-03-25T12:20:28.081Z,71.60
2019-03-25T12:22:56.935Z,68.50
2019-03-25T12:25:25.727Z,70.30
2019-03-25T12:27:54.541Z,71.30
2019-03-25T12:30:23.405Z,70.10
2019-03-25T12:32:52.254Z,70.70
2019-03-25T12:35:20.993Z,67.50
2019-03-25T12:37:50.160Z,68.40
2019-03-25T12:40:19.437Z,69.40
2019-03-25T12:42:48.294Z,69.30
2019-03-25T12:45:17.141Z,68.50
2019-03-25T12:47:45.920Z,69.40
2019-03-25T12:50:15.097Z,71.60
2019-03-25T12:52:43.905Z,69.80
2019-03-25T12:55:12.802Z,70.10
2019-03-25T12:57:41.633Z,69.20
2019-03-25T13:00:10.816Z,71.50
2019-03-25T13:02:39.970Z,71.10
2019-03-25T13:05:10.277Z,71.80
2019-03-25T13:07:39.056Z,71.30
2019-03-25T13:10:08.109Z,70.30
2019-03-25T13:12:36.870Z,70.90
2019-03-25T13:15:09.094Z,71.20
2019-03-25T13:17:37.898Z,71.60
2019-03-25T13:20:06.927Z,72.10
2019-03-25T13:22:36.097Z,71.10
2019-03-25T13:25:05.491Z,73.10
2019-03-25T13:27:34.296Z,72.30
2019-03-25T13:30:03.239Z,71.70
2019-03-25T13:32:32.109Z,71.90
2019-03-25T13:35:01.259Z,75.10
2019-03-25T13:37:30.067Z,75.30
2019-03-25T13:40:18.275Z,76.50
2019-03-25T13:42:47.480Z,77.00
2019-03-25T13:45:17.365Z,79.40
2019-03-25T13:47:46.065Z,78.60
2019-03-25T13:50:15.250Z,75.90
2019-03-25T13:52:44.055Z,76.10
2019-03-25T13:55:12.984Z,77.80
2019-03-25T13:57:41.824Z,78.10
2019-03-25T14:00:11.926Z,78.00
2019-03-25T14:02:40.677Z,79.10
2019-03-25T14:05:09.678Z,79.00
2019-03-25T14:07:38.528Z,77.80
2019-03-25T14:10:10.670Z,77.20
2019-03-25T14:12:39.482Z,78.90
2019-03-25T14:15:09.364Z,79.70
2019-03-25T14:17:38.229Z,79.60
2019-03-25T14:20:08.806Z,78.70
2019-03-25T14:22:37.641Z,76.80
2019-03-25T14:25:07.272Z,78.10
2019-03-25T14:27:37.014Z,78.00
2019-03-25T14:30:14.398Z,76.20
2019-03-25T14:32:38.377Z,78.20
2019-03-25T14:35:07.535Z,78.80
2019-03-25T14:37:36.321Z,77.90
2019-03-25T14:40:08.429Z,78.00
2019-03-25T14:42:37.195Z,77.80
2019-03-25T14:45:06.929Z,75.80
2019-03-25T14:47:35.819Z,76.60
2019-03-25T14:50:06.870Z,77.90
2019-03-25T14:52:35.683Z,77.80
2019-03-25T14:55:05.333Z,78.20
2019-03-25T14:57:34.127Z,79.60
2019-03-25T15:00:02.953Z,78.00
2019-03-25T15:02:31.763Z,80.70
2019-03-25T15:05:00.607Z,78.00
2019-03-25T15:07:29.405Z,78.80
2019-03-25T15:09:58.283Z,79.70
2019-03-25T15:12:27.072Z,81.00
2019-03-25T15:14:55.878Z,79.70
2019-03-25T15:17:24.700Z,79.20
2019-03-25T15:19:53.629Z,79.40
2019-03-25T15:22:22.786Z,78.70
2019-03-25T15:24:52.623Z,78.20
2019-03-25T15:27:21.463Z,80.50
2019-03-25T15:29:50.276Z,78.00
2019-03-25T15:32:19.100Z,78.40
2019-03-25T15:34:47.826Z,79.20
2019-03-25T15:37:16.668Z,79.90
2019-03-25T15:39:46.867Z,79.20
2019-03-25T15:42:17.622Z,78.40
2019-03-25T15:44:47.327Z,79.40
2019-03-25T15:47:16.078Z,80.70
2019-03-25T15:49:44.891Z,80.50
2019-03-25T15:52:13.678Z,80.90
2019-03-25T15:54:42.512Z,81.10
2019-03-25T15:57:11.401Z,80.00
2019-03-25T15:59:40.261Z,80.80
2019-03-25T16:02:09.086Z,80.80
2019-03-25T16:04:37.924Z,80.20
2019-03-25T16:07:09.156Z,79.90
2019-03-25T16:09:37.916Z,79.10
2019-03-25T16:12:06.728Z,81.00
2019-03-25T16:14:35.864Z,81.60
2019-03-25T16:17:04.702Z,81.80
2019-03-25T16:19:33.530Z,80.90
2019-03-25T16:22:02.317Z,80.60
2019-03-25T16:24:31.152Z,79.70
2019-03-25T16:27:00.198Z,81.50
2019-03-25T16:29:28.944Z,80.10
2019-03-25T16:31:57.788Z,80.50
2019-03-25T16:34:26.616Z,80.70
2019-03-25T16:36:56.348Z,81.40
2019-03-25T16:39:25.261Z,80.80
2019-03-25T16:41:54.132Z,81.40
2019-03-25T16:44:23.042Z,81.40
2019-03-25T16:46:51.834Z,81.70
2019-03-25T16:49:20.655Z,82.10
2019-03-25T16:51:49.488Z,82.60
2019-03-25T16:54:19.356Z,82.90
2019-03-25T16:56:48.155Z,81.50
2019-03-25T16:59:16.961Z,81.40
2019-03-25T17:01:45.723Z,81.70
2019-03-25T17:04:14.437Z,81.80
2019-03-25T17:06:43.297Z,81.90
2019-03-25T17:09:12.458Z,82.80
2019-03-25T17:11:41.250Z,84.20
2019-03-25T17:14:10.090Z,82.80
2019-03-25T17:16:40.185Z,83.00
2019-03-25T17:19:09.023Z,83.20
2019-03-25T17:21:37.750Z,83.10
2019-03-25T17:24:06.582Z,84.10
2019-03-25T17:26:42.262Z,85.00
2019-03-25T17:29:05.999Z,84.00
2019-03-25T17:31:34.816Z,85.00
2019-03-25T17:34:03.586Z,84.50
2019-03-25T17:36:32.428Z,84.60
2019-03-25T17:39:01.230Z,85.40
2019-03-25T17:41:30.038Z,84.80
2019-03-25T17:43:58.875Z,85.30
2019-03-25T17:46:28.042Z,85.30
2019-03-25T17:48:56.838Z,85.50
2019-03-25T17:51:25.672Z,85.80
2019-03-25T17:53:54.491Z,85.60
2019-03-25T17:56:23.780Z,85.40
2019-03-25T17:58:53.362Z,85.30
2019-03-25T18:01:32.104Z,85.60
2019-03-25T18:03:56.063Z,85.10
2019-03-25T18:06:26.291Z,84.50
2019-03-25T18:08:57.920Z,84.80
2019-03-25T18:11:26.881Z,84.50
2019-03-25T18:13:55.708Z,85.20
2019-03-25T18:16:25.498Z,83.80
2019-03-25T18:18:57.934Z,84.40
2019-03-25T18:21:27.635Z,85.10
2019-03-25T18:23:58.011Z,85.00
2019-03-25T18:26:27.795Z,84.80
2019-03-25T18:28:58.881Z,85.20
2019-03-25T18:31:29.955Z,85.10
2019-03-25T18:33:58.757Z,85.10
2019-03-25T18:36:30.136Z,85.40
2019-03-25T18:38:58.890Z,85.20
2019-03-25T18:41:30.134Z,85.80
2019-03-25T18:44:00.535Z,85.60
2019-03-25T18:46:29.494Z,84.90
2019-03-25T18:49:00.284Z,84.90
2019-03-25T18:51:31.286Z,85.10
2019-03-25T18:54:03.073Z,85.50
2019-03-25T18:56:39.255Z,85.50
2019-03-25T18:59:05.558Z,85.40
2019-03-25T19:01:35.662Z,85.60
2019-03-25T19:04:05.455Z,86.70
2019-03-25T19:06:39.704Z,86.00
2019-03-25T19:09:08.968Z,86.80
2019-03-25T19:11:39.558Z,86.60
2019-03-25T19:14:10.674Z,87.00
2019-03-25T19:16:43.863Z,87.60
2019-03-25T19:19:14.062Z,88.10
2019-03-25T19:21:43.216Z,88.40
2019-03-25T19:24:14.265Z,88.30
2019-03-25T19:26:44.282Z,87.50
2019-03-25T19:29:16.211Z,87.90
2019-03-25T19:31:47.344Z,87.70
2019-03-25T19:34:18.462Z,88.20
2019-03-25T19:36:47.487Z,88.50
2019-03-25T19:39:18.109Z,88.40
2019-03-25T19:41:48.411Z,88.90
2019-03-25T19:44:20.845Z,88.60
2019-03-25T19:46:51.464Z,88.70
2019-03-25T19:49:21.884Z,90.00
2019-03-25T19:51:53.659Z,88.80
2019-03-25T19:54:24.443Z,89.90
2019-03-25T19:56:54.582Z,89.20
2019-03-25T19:59:23.859Z,89.50
2019-03-25T20:01:53.246Z,89.30
2019-03-25T20:04:23.141Z,89.40
2019-03-25T20:06:54.737Z,89.40
2019-03-25T20:09:23.891Z,89.50
2019-03-25T20:11:53.163Z,89.10
2019-03-25T20:14:22.330Z,88.80
2019-03-25T20:16:51.602Z,89.10
2019-03-25T20:19:22.491Z,89.80
2019-03-25T20:21:51.582Z,90.00
2019-03-25T20:24:21.449Z,90.00
2019-03-25T20:26:50.322Z,90.00
2019-03-25T20:29:21.480Z,90.00
2019-03-25T20:31:51.498Z,90.10
2019-03-25T20:34:34.219Z,90.40
2019-03-25T20:37:03.771Z,90.80
2019-03-25T20:39:35.531Z,90.50
2019-03-25T20:42:05.246Z,90.60
2019-03-25T20:44:34.453Z,90.60
2019-03-25T20:47:05.086Z,90.60
2019-03-25T20:49:40.489Z,90.70
2019-03-25T20:52:08.998Z,90.70
2019-03-25T20:54:38.298Z,90.90
2019-03-25T20:57:07.073Z,90.90
2019-03-25T20:59:36.007Z,91.10
2019-03-25T21:02:04.964Z,90.80
2019-03-25T21:04:33.962Z,90.80
2019-03-25T21:07:04.113Z,90.80
2019-03-25T21:09:33.075Z,90.80
2019-03-25T21:12:01.858Z,91.00
2019-03-25T21:14:30.609Z,91.00
2019-03-25T21:16:59.411Z,91.20
2019-03-25T21:19:28.238Z,91.20
2019-03-25T21:21:57.021Z,91.10
2019-03-25T21:24:26.765Z,91.30
2019-03-25T21:26:55.712Z,91.10
2019-03-25T21:29:25.732Z,91.20
2019-03-25T21:31:54.496Z,91.10
2019-03-25T21:34:23.242Z,91.10
2019-03-25T21:36:52.058Z,91.00
2019-03-25T21:39:21.119Z,91.10
2019-03-25T21:41:49.922Z,91.00
2019-03-25T21:44:18.910Z,91.00
2019-03-25T21:46:47.703Z,91.00
2019-03-25T21:49:16.437Z,91.30
2019-03-25T21:51:46.348Z,91.50
2019-03-25T21:54:15.177Z,91.50
2019-03-25T21:56:43.974Z,91.40
2019-03-25T21:59:12.705Z,91.30
2019-03-25T22:01:41.442Z,91.40
2019-03-25T22:04:10.227Z,91.20
2019-03-25T22:06:39.015Z,91.20
2019-03-25T22:09:07.959Z,91.00
2019-03-25T22:11:36.773Z,91.00
2019-03-25T22:14:05.579Z,91.30
2019-03-25T22:16:34.409Z,91.20
2019-03-25T22:19:03.539Z,91.30
2019-03-25T22:21:32.399Z,91.60
2019-03-25T22:24:01.240Z,92.00
2019-03-25T22:26:30.038Z,91.80
2019-03-25T22:28:58.900Z,91.70
2019-03-25T22:31:27.679Z,92.20
2019-03-25T22:33:56.482Z,92.20
2019-03-25T22:36:26.245Z,92.50
2019-03-25T22:38:55.042Z,92.50
2019-03-25T22:41:24.151Z,92.80
2019-03-25T22:43:53.346Z,92.70
2019-03-25T22:46:22.103Z,92.60
2019-03-25T22:48:50.916Z,92.70
2019-03-25T22:51:20.702Z,92.80
2019-03-25T22:53:49.545Z,93.00
2019-03-25T22:56:18.343Z,92.70
2019-03-25T22:58:47.389Z,92.80
2019-03-25T23:01:16.519Z,92.80
2019-03-25T23:03:45.313Z,93.00
2019-03-25T23:06:14.163Z,92.90
2019-03-25T23:08:42.969Z,93.00
2019-03-25T23:11:12.151Z,93.20
2019-03-25T23:13:40.935Z,93.30
2019-03-25T23:16:10.133Z,93.40
2019-03-25T23:18:38.973Z,93.60
2019-03-25T23:21:07.815Z,93.50
2019-03-25T23:23:36.586Z,94.20
2019-03-25T23:26:05.348Z,93.80
2019-03-25T23:28:34.714Z,93.90
2019-03-25T23:31:03.549Z,94.10
2019-03-25T23:33:32.417Z,94.10
2019-03-25T23:36:01.318Z,94.10
2019-03-25T23:38:30.142Z,94.10
2019-03-25T23:40:59.041Z,94.00
2019-03-25T23:43:27.840Z,94.00
2019-03-25T23:45:56.838Z,94.00
2019-03-25T23:48:25.678Z,93.90
2019-03-25T23:50:54.550Z,94.10
2019-03-25T23:53:23.337Z,94.30
2019-03-25T23:55:52.265Z,94.30
2019-03-25T23:58:21.253Z,94.30
